sensor_id;sensor_type;location;lat;lon;timestamp;pressure;altitude;pressure_sealevel;temperature;humidity
71642;BME280;60657;50.122;14.468;2023-05-23T00:02:40;97799.95806094872;;;18.623254749370567;61.881666285191116
71642;BME280;60657;50.122;14.468;2023-05-23T00:05:42;97805.94188568927;;;18.596551461051348;62.13725490196079
71642;BME280;60657;50.122;14.468;2023-05-23T00:08:44;97800.20799558194;;;18.420309758144505;62.89829861905852
71642;BME280;60657;50.122;14.468;2023-05-23T00:11:47;97797.04264058518;;;18.37224383916991;62.930724040589
71642;BME280;60657;50.122;14.468;2023-05-23T00:14:49;97795.10813939956;;;18.406958113984892;63.14435034714275
71642;BME280;60657;50.122;14.468;2023-05-23T00:17:51;97796.2220206162;;;18.342870222018767;63.39993896391242
71642;BME280;60657;50.122;14.468;2023-05-23T00:20:52;97808.17682776407;;;18.302815289539943;63.869153887235825
71642;BME280;60657;50.122;14.468;2023-05-23T00:23:54;97803.83854089631;;;18.47638666361486;63.67841611352712
71642;BME280;60657;50.122;14.468;2023-05-23T00:26:56;97810.98488992498;;;18.58854047455558;63.096665903715575
71642;BME280;60657;50.122;14.468;2023-05-23T00:29:58;97808.64277475457;;;18.56183718623636;63.14816510261693
71642;BME280;60657;50.122;14.468;2023-05-23T00:33:00;97808.40341348386;;;18.575188830395973;63.4018463416495
71642;BME280;60657;50.122;14.468;2023-05-23T00:36:02;97805.94188568927;;;18.556496528572517;63.53154802777142
71642;BME280;60657;50.122;14.468;2023-05-23T00:39:04;97807.94462932467;;;18.34019989318685;64.4776073853666
71642;BME280;60657;50.122;14.468;2023-05-23T00:42:06;97803.2524137861;;;18.22003509575036;65.14137483787289
71642;BME280;60657;50.122;14.468;2023-05-23T00:45:09;97810.05563278969;;;18.393606469825286;64.5806057831693
71642;BME280;60657;50.122;14.468;2023-05-23T00:48:11;97795.63317896279;;;18.42565041580835;64.70649271381704
71642;BME280;60657;50.122;14.468;2023-05-23T00:51:13;97791.29837348413;;;18.302815289539943;64.83428702220188
71642;BME280;60657;50.122;14.468;2023-05-23T00:54:16;97808.06090550219;;;18.2974746318761;65.06317235065232
71642;BME280;60657;50.122;14.468;2023-05-23T00:57:24;97805.59874242362;;;18.300144960708018;64.99832150759136
71642;BME280;60657;50.122;14.468;2023-05-23T01:00:27;97798.27242271487;;;18.420309758144505;65.03646906233311
71642;BME280;60657;50.122;14.468;2023-05-23T01:03:29;97796.4536996124;;;18.4683756771191;64.84191653315023
71642;BME280;60657;50.122;14.468;2023-05-23T01:06:31;97794.22866744558;;;18.366903181506068;65.07461661707485
71642;BME280;60657;50.122;14.468;2023-05-23T01:09:33;97792.41037369458;;;18.42565041580835;65.1394674601358
71642;BME280;60657;50.122;14.468;2023-05-23T01:12:36;97773.70574387246;;;18.44167238879988;65.12993057145037
71642;BME280;60657;50.122;14.468;2023-05-23T01:15:49;97775.8233664307;;;18.33218890669108;65.49805447470817
71642;BME280;60657;50.122;14.468;2023-05-23T01:19:04;97763.98761514058;;;18.155947203784237;66.16563668268864
71642;BME280;60657;50.122;14.468;2023-05-23T01:22:21;97760.5303632281;;;18.190661478599225;66.2896162355993
71642;BME280;60657;50.122;14.468;2023-05-23T01:25:38;97763.16717335003;;;18.171969176775768;66.53376058594644
71642;BME280;60657;50.122;14.468;2023-05-23T01:28:53;97756.53928317713;;;18.369573510337986;66.16754406042573
71642;BME280;60657;50.122;14.468;2023-05-23T01:32:02;97766.27324766575;;;18.182650492103456;66.9228656443122
71642;BME280;60657;50.122;14.468;2023-05-23T01:35:08;97762.69715160574;;;18.324177920195318;66.7168688487068
71642;BME280;60657;50.122;14.468;2023-05-23T01:38:12;97760.11775430867;;;18.310826276035705;66.78934920271611
71642;BME280;60657;50.122;14.468;2023-05-23T01:41:14;97764.10066630687;;;18.345540550850693;66.8503852903029
71642;BME280;60657;50.122;14.468;2023-05-23T01:44:16;97768.67575792545;;;18.300144960708018;66.86564431219959
71642;BME280;60657;50.122;14.468;2023-05-23T01:47:19;97766.62113173184;;;18.35622186617838;67.06401159685664
71642;BME280;60657;50.122;14.468;2023-05-23T01:50:23;97765.7413291501;;;18.377584496833755;66.47844663157092
71642;BME280;60657;50.122;14.468;2023-05-23T01:53:25;97777.46496711533;;;18.19600213626307;67.08308537422751
71642;BME280;60657;50.122;14.468;2023-05-23T01:56:32;97785.96442502804;;;18.361562523842224;66.6424811169604
71642;BME280;60657;50.122;14.468;2023-05-23T01:59:35;97795.6344230798;;;18.171969176775768;67.34630350194553
71642;BME280;60657;50.122;14.468;2023-05-23T02:02:37;97802.60470204196;;;18.14259555962463;67.65529869535362
71642;BME280;60657;50.122;14.468;2023-05-23T02:05:39;97800.59969961348;;;18.035782406347757;67.8803692683299
71642;BME280;60657;50.122;14.468;2023-05-23T02:08:41;97821.42347813217;;;17.822156099794;68.4563973449302
71642;BME280;60657;50.122;14.468;2023-05-23T02:11:43;97812.28107330405;;;17.80613412680247;68.17982757305256
71642;BME280;60657;50.122;14.468;2023-05-23T02:14:45;97812.33636841323;;;17.774090180819407;68.14358739604792
71642;BME280;60657;50.122;14.468;2023-05-23T02:17:47;97832.20580708125;;;17.63256275272755;68.17029068436713
71642;BME280;60657;50.122;14.468;2023-05-23T02:20:49;97830.22305316565;;;17.483024338139927;67.9681086442359
71642;BME280;60657;50.122;14.468;2023-05-23T02:23:51;97833.0042178322;;;17.426947432669564;67.9967193102922
71642;BME280;60657;50.122;14.468;2023-05-23T02:26:53;97834.50171960273;;;17.232013427939272;68.73678187228198
71642;BME280;60657;50.122;14.468;2023-05-23T02:29:55;97833.26702104027;;;17.109178301670866;69.11444266422522
71642;BME280;60657;50.122;14.468;2023-05-23T02:32:57;97840.24387705322;;;17.034409094377054;69.12588693064775
71642;BME280;60657;50.122;14.468;2023-05-23T02:35:59;97839.63225757207;;;16.695277332722974;69.79156176089113
71642;BME280;60657;50.122;14.468;2023-05-23T02:39:01;97838.76204597045;;;16.72465094987411;69.78965438315404
71642;BME280;60657;50.122;14.468;2023-05-23T02:42:04;97848.37819599194;;;16.57778286411841;69.89456015869382
71642;BME280;60657;50.122;14.468;2023-05-23T02:45:07;97843.54002716273;;;16.548409246967267;70.03379873350119
71642;BME280;60657;50.122;14.468;2023-05-23T02:48:10;97837.69112098914;;;16.508354314488443;69.61036087586785
71642;BME280;60657;50.122;14.468;2023-05-23T02:51:12;97821.54991230888;;;16.63118944075685;69.31853208209354
71642;BME280;60657;50.122;14.468;2023-05-23T02:54:14;97830.54271895769;;;16.668574044403755;68.82642862592508
71642;BME280;60657;50.122;14.468;2023-05-23T02:57:16;97838.27593362248;;;16.593804837109943;68.82642862592508
71642;BME280;60657;50.122;14.468;2023-05-23T03:00:18;97828.7054846514;;;16.729991607537954;67.98527504386969
71642;BME280;60657;50.122;14.468;2023-05-23T03:03:20;97827.78640403583;;;16.764705882352942;67.60570687418937
71642;BME280;60657;50.122;14.468;2023-05-23T03:06:22;97821.5429096181;;;16.828793774319067;67.203250171664
71642;BME280;60657;50.122;14.468;2023-05-23T03:09:24;97827.91778058409;;;16.924925612268254;66.54711223010605
71642;BME280;60657;50.122;14.468;2023-05-23T03:12:26;97812.82736963092;;;16.93560692759594;66.12939650568399
71642;BME280;60657;50.122;14.468;2023-05-23T03:15:28;97804.2072987216;;;17.02105745021744;65.38933394369421
71642;BME280;60657;50.122;14.468;2023-05-23T03:18:30;97802.5643487422;;;16.99702449073014;64.71602960250247
71642;BME280;60657;50.122;14.468;2023-05-23T03:21:32;97806.62078366721;;;17.050431067368585;64.35362783245594
71642;BME280;60657;50.122;14.468;2023-05-23T03:24:34;97796.55900850351;;;17.037079423208972;63.70321202410925
71642;BME280;60657;50.122;14.468;2023-05-23T03:27:36;97795.68633280063;;;17.050431067368585;63.56969558251316
71642;BME280;60657;50.122;14.468;2023-05-23T03:30:38;97793.62973155429;;;16.93827725642786;63.90539406424048
71642;BME280;60657;50.122;14.468;2023-05-23T03:33:40;97799.22761240402;;;17.039749752040898;63.46860456244755
71642;BME280;60657;50.122;14.468;2023-05-23T03:36:42;97798.765746436;;;17.159914549477378;63.14053559166858
71642;BME280;60657;50.122;14.468;2023-05-23T03:39:44;97788.0883656953;;;17.08781567101549;62.80292973220416
71642;BME280;60657;50.122;14.468;2023-05-23T03:42:46;97784.23078017801;;;17.240024414435034;62.45578698405433
71642;BME280;60657;50.122;14.468;2023-05-23T03:45:49;97794.34741334942;;;17.25871671625849;62.833447775997556
71642;BME280;60657;50.122;14.468;2023-05-23T03:48:51;97785.15685127833;;;17.27740901808194;62.757152666514074
71642;BME280;60657;50.122;14.468;2023-05-23T03:51:53;97789.36759586411;;;17.29343099107347;62.48439765011062
71642;BME280;60657;50.122;14.468;2023-05-23T03:54:55;97779.14591753465;;;17.298771648737315;62.45769436179141
71642;BME280;60657;50.122;14.468;2023-05-23T03:57:57;97768.70848359274;;;17.416266117341877;61.771038376440075
71642;BME280;60657;50.122;14.468;2023-05-23T04:00:59;97767.5103880164;;;17.493705653467615;61.67185473411155
71642;BME280;60657;50.122;14.468;2023-05-23T04:04:01;97773.03921329639;;;17.57648584725719;61.27512016479744
71642;BME280;60657;50.122;14.468;2023-05-23T04:07:04;97768.71581247823;;;17.67795834287022;60.77538719768063
71642;BME280;60657;50.122;14.468;2023-05-23T04:10:07;97774.68103125057;;;17.672617685206376;60.752498664835585
71642;BME280;60657;50.122;14.468;2023-05-23T04:13:10;97774.68103125057;;;17.672617685206376;60.59418631265736
71642;BME280;60657;50.122;14.468;2023-05-23T04:16:12;97767.5085336223;;;17.7367055771725;61.05767910276951
71642;BME280;60657;50.122;14.468;2023-05-23T04:19:14;97759.84346064611;;;17.723353933012895;60.567483024338145
71642;BME280;60657;50.122;14.468;2023-05-23T04:22:16;97776.91022366633;;;17.856870374608988;60.107804989700156
71642;BME280;60657;50.122;14.468;2023-05-23T04:25:18;97787.37502170948;;;17.758068207827876;60.49881742580301
71642;BME280;60657;50.122;14.468;2023-05-23T04:28:20;97775.32502598588;;;17.963683527885863;59.83314259555962
71642;BME280;60657;50.122;14.468;2023-05-23T04:31:23;97785.65522989183;;;18.022430762188144;59.64240482185092
71642;BME280;60657;50.122;14.468;2023-05-23T04:34:25;97780.27346473232;;;18.139925230792706;58.88517586022736
71642;BME280;60657;50.122;14.468;2023-05-23T04:37:27;97777.67457283368;;;17.886243991760125;61.37621118486305
71642;BME280;60657;50.122;14.468;2023-05-23T04:40:29;97772.2661400986;;;17.808804455634395;60.521705958648056
71642;BME280;60657;50.122;14.468;2023-05-23T04:43:31;97774.61654880104;;;17.886243991760125;59.835049973296705
71642;BME280;60657;50.122;14.468;2023-05-23T04:46:33;97771.58973622147;;;17.953002212558175;60.98901350423438
71642;BME280;60657;50.122;14.468;2023-05-23T04:49:36;97767.00533894275;;;17.870222018768594;62.66369115739681
71642;BME280;60657;50.122;14.468;2023-05-23T04:52:38;97768.27374441571;;;17.822156099794;63.041351949340054
71642;BME280;60657;50.122;14.468;2023-05-23T04:55:40;97762.86010684594;;;17.656595712214845;63.7108415350576
71642;BME280;60657;50.122;14.468;2023-05-23T04:58:42;97774.68103125057;;;17.581826504921032;62.774319066147854
71642;BME280;60657;50.122;14.468;2023-05-23T05:01:44;97761.92912077242;;;17.755397878995957;62.19829098954757
71642;BME280;60657;50.122;14.468;2023-05-23T05:04:46;97762.6393483117;;;17.80613412680247;62.5187304493782
71642;BME280;60657;50.122;14.468;2023-05-23T05:07:48;97754.69541509704;;;17.859540703440906;61.91599908445869
71642;BME280;60657;50.122;14.468;2023-05-23T05:10:50;97743.03839644729;;;17.859540703440906;62.15632867933165
71642;BME280;60657;50.122;14.468;2023-05-23T05:13:52;97739.64352433321;;;17.832837415121688;62.5187304493782
71642;BME280;60657;50.122;14.468;2023-05-23T05:16:54;97732.25895346378;;;17.774090180819407;62.451972228580146
71642;BME280;60657;50.122;14.468;2023-05-23T05:19:56;97738.05884426659;;;17.835507743953613;62.05905241474022
71642;BME280;60657;50.122;14.468;2023-05-23T05:22:59;97746.37693506469;;;17.782101167315176;62.70374608987564
71642;BME280;60657;50.122;14.468;2023-05-23T05:26:01;97753.8747813551;;;17.77943083848325;62.02471961547265
71642;BME280;60657;50.122;14.468;2023-05-23T05:29:03;97764.87937164895;;;17.80346379797055;61.1625848783093
71642;BME280;60657;50.122;14.468;2023-05-23T05:32:05;97760.80787476971;;;17.91561760891127;61.40100709544518
71642;BME280;60657;50.122;14.468;2023-05-23T05:35:07;97761.26061036249;;;17.851529716945144;61.56122682536049
71642;BME280;60657;50.122;14.468;2023-05-23T05:38:09;97768.59034963309;;;17.96635385671778;61.75577935454338
71642;BME280;60657;50.122;14.468;2023-05-23T05:41:12;97766.90301133995;;;18.56183718623636;60.06584267948425
71642;BME280;60657;50.122;14.468;2023-05-23T05:44:14;97755.21696404259;;;18.981078812848097;59.05683985656519
71642;BME280;60657;50.122;14.468;2023-05-23T05:47:16;97756.27369786853;;;19.336232547493708;57.839932860303655
71642;BME280;60657;50.122;14.468;2023-05-23T05:50:18;97768.53814257387;;;19.579232471198594;57.158999008163576
71642;BME280;60657;50.122;14.468;2023-05-23T05:53:20;97770.93092085073;;;19.595254444190132;56.39604791332876
71642;BME280;60657;50.122;14.468;2023-05-23T05:56:22;97771.97071997379;;;19.750133516441593;57.09224078736553
71642;BME280;60657;50.122;14.468;2023-05-23T05:59:25;97779.08123535116;;;20.054551003280693;56.24536507209888
71642;BME280;60657;50.122;14.468;2023-05-23T06:02:27;97775.58535756162;;;20.28686961165789;55.73800259403372
71642;BME280;60657;50.122;14.468;2023-05-23T06:05:29;97768.68144617225;;;20.257495994506755;55.4023041123064
71642;BME280;60657;50.122;14.468;2023-05-23T06:08:31;97772.168554099;;;20.257495994506755;55.373693446250094
71642;BME280;60657;50.122;14.468;2023-05-23T06:11:34;97771.25124696303;;;20.460440985732816;55.858167391470204
71642;BME280;60657;50.122;14.468;2023-05-23T06:14:36;97782.93236462025;;;20.465781643396653;55.92683299000534
71642;BME280;60657;50.122;14.468;2023-05-23T06:17:38;97785.88504506243;;;20.32158388647288;56.35027084763867
71642;BME280;60657;50.122;14.468;2023-05-23T06:20:40;97785.60264042624;;;20.34561684596018;56.65926604104677
71642;BME280;60657;50.122;14.468;2023-05-23T06:23:42;97797.17809468645;;;20.04654001678493;58.3053330281529
71642;BME280;60657;50.122;14.468;2023-05-23T06:26:44;97796.5641666043;;;20.01716639963378;58.99771114671549
71642;BME280;60657;50.122;14.468;2023-05-23T06:29:46;97789.93440424516;;;19.790188448920418;60.05058365758755
71642;BME280;60657;50.122;14.468;2023-05-23T06:32:48;97797.09445213448;;;19.731441214618144;59.93423361562523
71642;BME280;60657;50.122;14.468;2023-05-23T06:35:50;97799.56731858061;;;19.90768291752498;59.46883344777599
71642;BME280;60657;50.122;14.468;2023-05-23T06:38:52;97799.49956439041;;;19.985122453650717;60.62470435645075
71642;BME280;60657;50.122;14.468;2023-05-23T06:41:54;97800.93095998521;;;20.206759746700243;59.52605477988861
71642;BME280;60657;50.122;14.468;2023-05-23T06:44:57;97805.9861470492;;;20.10261692225528;60.09254596780346
71642;BME280;60657;50.122;14.468;2023-05-23T06:48:02;97805.37334995826;;;20.094605935759517;58.97291523613336
71642;BME280;60657;50.122;14.468;2023-05-23T06:51:04;97808.31142210307;;;20.06523231860838;59.707255664911884
71642;BME280;60657;50.122;14.468;2023-05-23T06:54:07;97818.0788064373;;;20.054551003280693;59.157930876630815
71642;BME280;60657;50.122;14.468;2023-05-23T06:57:09;97815.61985899115;;;20.10261692225528;60.06202792401007
71642;BME280;60657;50.122;14.468;2023-05-23T07:00:12;97815.82057565806;;;20.225452048523692;58.08598458838789
71642;BME280;60657;50.122;14.468;2023-05-23T07:03:14;97809.99731983732;;;20.409704737926305;57.49660486762799
71642;BME280;60657;50.122;14.468;2023-05-23T07:06:17;97810.9571092576;;;20.30556191348134;58.35873960479134
71642;BME280;60657;50.122;14.468;2023-05-23T07:09:19;97816.66398919818;;;20.56191348134584;57.12466620889601
71642;BME280;60657;50.122;14.468;2023-05-23T07:12:21;97818.87001653243;;;20.545891508354316;58.14320592050049
71642;BME280;60657;50.122;14.468;2023-05-23T07:15:23;97815.41557014784;;;20.64736400396734;57.55191882200351
71642;BME280;60657;50.122;14.468;2023-05-23T07:18:25;97818.33242729625;;;20.716792553597315;56.756542305638206
71642;BME280;60657;50.122;14.468;2023-05-23T07:21:28;97817.89718838717;;;20.836957351033803;56.5658045319295
71642;BME280;60657;50.122;14.468;2023-05-23T07:24:30;97820.28182366071;;;20.88502327000839;56.48378728923476
71642;BME280;60657;50.122;14.468;2023-05-23T07:27:32;97822.37342615139;;;20.941100175478752;55.99740596627756
71642;BME280;60657;50.122;14.468;2023-05-23T07:30:34;97820.1357873871;;;20.938429846646827;56.40939955748836
71642;BME280;60657;50.122;14.468;2023-05-23T07:33:36;97821.93137109982;;;21.10399023422599;56.21866178377966
71642;BME280;60657;50.122;14.468;2023-05-23T07:36:39;97842.40057881114;;;21.05592431525139;55.768520637827116
71642;BME280;60657;50.122;14.468;2023-05-23T07:39:41;97832.35686136497;;;21.186770428015564;55.793316548409244
71642;BME280;60657;50.122;14.468;2023-05-23T07:42:43;97831.089225025;;;21.039902342259865;56.47234302281224
71642;BME280;60657;50.122;14.468;2023-05-23T07:45:45;97836.22543691202;;;21.101319905394064;57.58434424353399
71642;BME280;60657;50.122;14.468;2023-05-23T07:48:47;97835.9293048646;;;21.376363775082012;58.127946898603795
71642;BME280;60657;50.122;14.468;2023-05-23T07:51:49;97842.92392465481;;;21.4591439688716;57.76935988403143
71642;BME280;60657;50.122;14.468;2023-05-23T07:54:52;97826.93307786954;;;21.832990005340662;57.04837109941253
71642;BME280;60657;50.122;14.468;2023-05-23T07:57:54;97830.12529778514;;;22.367055771725035;56.41512169069963
71642;BME280;60657;50.122;14.468;2023-05-23T08:00:56;97838.4751054353;;;22.650110627908745;55.06851300831617
71642;BME280;60657;50.122;14.468;2023-05-23T08:04:00;97832.34059282069;;;22.460517280842296;54.730907148851756
71642;BME280;60657;50.122;14.468;2023-05-23T08:07:03;97833.56766485235;;;22.361715114061184;55.17341878385596
71642;BME280;60657;50.122;14.468;2023-05-23T08:10:06;97838.4751054353;;;22.51125352864881;54.73662928206302
71642;BME280;60657;50.122;14.468;2023-05-23T08:13:09;97834.21900089234;;;22.575341420614933;54.1949340047303
71642;BME280;60657;50.122;14.468;2023-05-23T08:16:11;97841.25921394375;;;22.361715114061184;54.85488670176242
71642;BME280;60657;50.122;14.468;2023-05-23T08:19:13;97838.63179182005;;;22.17479209582666;54.87777523460746
71642;BME280;60657;50.122;14.468;2023-05-23T08:22:15;97848.59577212014;;;22.092011902037086;55.284046692607006
71642;BME280;60657;50.122;14.468;2023-05-23T08:25:18;97838.45450095518;;;22.075989929045548;55.430914778362705
71642;BME280;60657;50.122;14.468;2023-05-23T08:28:20;97853.58694674312;;;22.04127565423056;55.40993362325475
71642;BME280;60657;50.122;14.468;2023-05-23T08:31:22;97854.90531673038;;;22.140077821011673;55.692225528343634
71642;BME280;60657;50.122;14.468;2023-05-23T08:34:24;97864.48811746316;;;22.24155031662471;55.08758678568704
71642;BME280;60657;50.122;14.468;2023-05-23T08:37:26;97859.33549987043;;;22.289616235599297;54.78812848096437
71642;BME280;60657;50.122;14.468;2023-05-23T08:40:29;97866.20558633703;;;22.233539330128934;54.83009079118028
71642;BME280;60657;50.122;14.468;2023-05-23T08:43:32;97864.728598994;;;22.134737163347836;54.582131685358966
71642;BME280;60657;50.122;14.468;2023-05-23T08:46:35;97862.75107716917;;;22.105363546196685;54.95597772182803
71642;BME280;60657;50.122;14.468;2023-05-23T08:49:42;97860.10880253969;;;21.8623636224918;54.9159227893492
71642;BME280;60657;50.122;14.468;2023-05-23T08:52:46;97876.40641434524;;;21.763561455710686;56.596322575722894
71642;BME280;60657;50.122;14.468;2023-05-23T08:55:55;97879.41770918692;;;21.42710002288854;59.335317006179906
71642;BME280;60657;50.122;14.468;2023-05-23T08:58:58;97893.26111782483;;;21.07995727473869;59.4974441138323
71642;BME280;60657;50.122;14.468;2023-05-23T09:02:01;97903.0383817901;;;20.711451895933465;61.17975127794308
71642;BME280;60657;50.122;14.468;2023-05-23T09:05:10;97904.8512630187;;;20.38834210727093;62.24788281071183
71642;BME280;60657;50.122;14.468;2023-05-23T09:08:13;97908.06074669531;;;20.22011139085984;61.92553597314412
71642;BME280;60657;50.122;14.468;2023-05-23T09:11:16;97918.288085996;;;20.054551003280693;63.00320439459831
71642;BME280;60657;50.122;14.468;2023-05-23T09:14:18;97914.47550051312;;;19.824902723735406;63.764248111696034
71642;BME280;60657;50.122;14.468;2023-05-23T09:17:21;97910.43696214759;;;19.76081483176928;64.80758373388265
71642;BME280;60657;50.122;14.468;2023-05-23T09:20:23;97917.83260171971;;;19.595254444190132;65.58197909514
71642;BME280;60657;50.122;14.468;2023-05-23T09:23:25;97913.1604658605;;;19.501792935072856;66.23239490348669
71642;BME280;60657;50.122;14.468;2023-05-23T09:26:30;97919.38791659575;;;19.245441367208358;68.62233920805676
71642;BME280;60657;50.122;14.468;2023-05-23T09:29:33;97913.33467561343;;;19.36026550698101;68.38963912413215
71642;BME280;60657;50.122;14.468;2023-05-23T09:32:38;97905.96166533929;;;19.41100175478752;69.35667963683528
71642;BME280;60657;50.122;14.468;2023-05-23T09:35:42;97909.18216226032;;;19.48043030441748;68.45258258945601
71642;BME280;60657;50.122;14.468;2023-05-23T09:38:46;97917.64054206564;;;19.416342412451357;67.64766918440527
71642;BME280;60657;50.122;14.468;2023-05-23T09:41:48;97925.02836896201;;;19.445716029602508;67.40543221179523
71642;BME280;60657;50.122;14.468;2023-05-23T09:44:52;97921.4208604076;;;19.378957808804458;67.84222171358816
71642;BME280;60657;50.122;14.468;2023-05-23T09:47:54;97923.63587489311;;;19.43503471427482;68.17219806210421
71642;BME280;60657;50.122;14.468;2023-05-23T09:50:57;97933.42483779487;;;19.49111161974517;68.71580071717403
71642;BME280;60657;50.122;14.468;2023-05-23T09:53:59;97936.8954306405;;;19.456397344930195;69.97848477912565
71642;BME280;60657;50.122;14.468;2023-05-23T09:57:01;97939.23394240247;;;19.483100633249407;69.63706416418708
71642;BME280;60657;50.122;14.468;2023-05-23T10:00:10;97934.62797833963;;;19.541847867551695;69.40436408026245
71642;BME280;60657;50.122;14.468;2023-05-23T10:03:15;97930.39753098543;;;19.621957732509344;69.34523537041275
71642;BME280;60657;50.122;14.468;2023-05-23T10:06:24;97930.08081911827;;;19.688715953307394;69.47302967879759
71642;BME280;60657;50.122;14.468;2023-05-23T10:09:34;97933.17282157007;;;19.798199435416194;69.47875181200885
71642;BME280;60657;50.122;14.468;2023-05-23T10:12:41;97926.91417085445;;;19.840924696726944;69.99374380102235
71642;BME280;60657;50.122;14.468;2023-05-23T10:15:48;97921.47169051874;;;19.93705653467613;70.19783321889066
71642;BME280;60657;50.122;14.468;2023-05-23T10:18:52;97928.29667917342;;;19.963759822995343;70.63271534294651
71642;BME280;60657;50.122;14.468;2023-05-23T10:22:00;97929.48140761348;;;20.027847714961467;71.09048599984742
71642;BME280;60657;50.122;14.468;2023-05-23T10:25:08;97924.78558005489;;;20.190737773708705;70.39810788128482
71642;BME280;60657;50.122;14.468;2023-05-23T10:28:11;97922.96090783534;;;20.43106736858168;71.59594110017548
71642;BME280;60657;50.122;14.468;2023-05-23T10:31:15;97918.38422914458;;;20.52452887769894;72.33791103990234
71642;BME280;60657;50.122;14.468;2023-05-23T10:34:21;97913.2509858482;;;20.80491340505074;71.34416723887999
71642;BME280;60657;50.122;14.468;2023-05-23T10:37:30;97912.54883507326;;;21.25886930647745;70.98939497978179
71642;BME280;60657;50.122;14.468;2023-05-23T10:40:44;97911.45413012679;;;21.573968108644237;69.2498664835584
71642;BME280;60657;50.122;14.468;2023-05-23T10:43:54;97904.7178777693;;;21.966506446936748;67.95094224460212
71642;BME280;60657;50.122;14.468;2023-05-23T10:47:10;97903.78868315626;;;22.12405584802015;66.78744182497901
71642;BME280;60657;50.122;14.468;2023-05-23T10:50:13;97905.54021795659;;;22.26024261844816;66.2896162355993
71642;BME280;60657;50.122;14.468;2023-05-23T10:53:33;97893.83836383137;;;22.19348439765011;66.80270084687571
71642;BME280;60657;50.122;14.468;2023-05-23T10:56:38;97909.98888777957;;;21.95582513160906;65.91767757686732
71642;BME280;60657;50.122;14.468;2023-05-23T10:59:40;97910.91247800544;;;21.768902113374537;66.48989089799343
71642;BME280;60657;50.122;14.468;2023-05-23T11:02:46;97902.20515867892;;;21.69947356374456;67.32722972457465
71642;BME280;60657;50.122;14.468;2023-05-23T11:05:57;97906.98201304878;;;21.58731975280385;66.72831311512932